Accueil
METAR-TAF:

METAR-TAF

Aéroports :

Saipan, Îles Mariannes, États-Unis

latitude: 15-07N, longitude: 145-44E, altitude: 66 m

Observation

Le bulletin a été fait il y a 53 minutes, à 18:54 UTC
Vent 6 kt de est
Température 28°C
Humidité 74%
Pression 1012 hPa
Visibilité: 16.1 km
Nuages épars à une hauteur de 2100 ft

METAR: PGSN 271854Z 09006KT 10SM SCT021 28/23 A2988 RMK AO2 SLP141 T02780233

Heure: 05:47 (19:47 UTC)

Prévision

Le bulletin a été fait il y a 2 heures et 27 minutes, à 17:20 UTC
Prévision valable du 27 à 18 UTC au 28 à 18 UTC
Vent 8 kt de est
Visibilité: 10 km
Quelques nuages à une hauteur de 2000 ft

TAF: PGSN 271720Z 2718/2818 09008KT P6SM FEW020

Observations et prévisions météorologiques de plus de 4000 aéroports (messages METAR et TAF).

Les stations disponibles sont représentées par des disques jaunes et rouges sur la carte.

Passer la souris dessus pour voir le nom de la station.

Cliquer dessus pour voir les observations et prévisions météorologiques.

Pour changer de carte: cliquez sur les boutons verts avec une croix noire pour zoomer, sur le bouton vert avec un tiret pour effectuer un zoom arrière, ou sur les flèches vertes pour les cartes adjacentes.


METAR-TAF: